Flight Track Log - Related Links

Times and Time Zones

All times are in EDT time to prevent confusion due to time zone crossing. See the RPA3159 flight status page for this flight to view local times or setup timezone preferences in your user account.

Time Position Orientation Groundspeed Altitude Reporting Facility
EDT Latitude Longitude Course Direction KTS MPH feet Rate Location/Type
Fri 11:30:00 AM 44.2138 -73.2500 180° South  Level FlightAware Approximate
Fri 11:30:39 AM 44.2839 -73.1794 195° South 294 338 8,400  Level Boston Center
Fri 11:31:00 AM 44.1283 -73.2769 195° South  Level FlightAware Approximate
Fri 11:31:39 AM 44.2006 -73.1900 185° South 287 330 11,000  Level Boston Center
Fri 11:32:00 AM 44.0432 -73.3078 194° South  Level FlightAware Approximate
Fri 11:32:39 AM 44.1131 -73.1919 181° South 312 359 13,600  Level Boston Center
Fri 11:33:00 AM 43.9576 -73.3364 193° South  Level FlightAware Approximate
Fri 11:33:39 AM 44.0172 -73.1906 179° South 330 380 16,100  Level Boston Center
Fri 11:34:00 AM 43.8723 -73.3667 195° South  Level FlightAware Approximate
Fri 11:34:39 AM 43.9214 -73.1925 181° South 343 395 18,300  Level Boston Center
Fri 11:35:00 AM 43.7874 -73.3986 195° South  Level FlightAware Approximate
Fri 11:35:39 AM 43.8422 -73.1914 179° South 355 409 20,200  Level Boston Center
Fri 11:36:00 AM 43.7024 -73.4304 195° South  Level FlightAware Approximate
Fri 11:36:39 AM 43.7186 -73.2558 201° Southwest 360 414 22,700  Level Boston Center
Fri 11:37:39 AM 43.6206 -73.3092 201° Southwest 370 426 24,500 1,650 Climbing Boston Center
Fri 11:38:39 AM 43.5219 -73.3678 203° Southwest 375 432 26,000 750 Climbing Boston Center
Fri 11:39:39 AM 43.4400 -73.4608 220° Southwest 380 437 26,000  Level Boston Center
Fri 11:40:39 AM 43.3597 -73.5594 222° Southwest 385 443 26,000  Level Boston Center
Fri 11:41:39 AM 43.2817 -73.6522 221° Southwest 385 443 26,000  Level Boston Center
Fri 11:42:39 AM 43.1994 -73.7531 222° Southwest 385 443 26,000  Level Boston Center
Fri 11:43:39 AM 43.1192 -73.8481 221° Southwest 390 449 26,000  Level Boston Center
Fri 11:44:39 AM 43.0408 -73.9428 221° Southwest 390 449 26,000  Level Boston Center
Fri 11:45:39 AM 42.9622 -74.0403 222° Southwest 384 442 26,000  Level Boston Center
Fri 11:46:39 AM 42.8817 -74.1344 221° Southwest 384 442 26,000  Level Boston Center
Fri 11:47:39 AM 42.8053 -74.2258 221° Southwest 384 442 26,000  Level Boston Center
Fri 11:48:39 AM 42.7203 -74.3222 220° Southwest 389 448 26,000  Level Boston Center
Fri 11:49:39 AM 42.6394 -74.4214 222° Southwest 389 448 26,000  Level Boston Center
Fri 11:50:39 AM 42.5564 -74.5203 221° Southwest 394 453 26,000  Level Boston Center
Fri 11:51:39 AM 42.4733 -74.6133 220° Southwest 394 453 26,000  Level Boston Center
Fri 11:52:39 AM 42.3922 -74.7089 221° Southwest 394 453 26,000 -150 Level Boston Center
Fri 11:53:39 AM 42.3111 -74.8069 222° Southwest 394 453 25,700 -650 Descending Boston Center
Fri 11:54:39 AM 42.2300 -74.9019 221° Southwest 394 453 24,700 -1,396 Descending Boston Center
Fri 11:56:18 AM 42.1033 -75.0225 215° Southwest 385 443 22,000 -1,887 Descending New York Center
Fri 11:57:18 AM 42.0156 -75.0922 211° Southwest 374 430 19,700 -1,513 Descending New York Center
Fri 11:58:17 AM 41.9253 -75.1669 212° Southwest 360 414 19,000 -555 Descending New York Center
Fri 11:59:17 AM 41.8414 -75.2367 212° Southwest 350 403 18,600 -1,082 Descending New York Center
Fri 12:00:19 PM 41.7578 -75.3033 211° Southwest 355 409 16,800 -1,850 Descending New York Center
Fri 12:01:17 PM 41.6847 -75.3622 211° Southwest 350 403 14,900 -1,966 Descending New York Center
Fri 12:02:18 PM 41.6050 -75.4261 211° Southwest 345 397 12,900 -1,450 Descending New York Center
Fri 12:03:17 PM 41.5233 -75.4925 211° Southwest 332 382 12,000 -454 Descending New York Center
Fri 12:04:17 PM 41.4458 -75.5533 210° Southwest 332 382 12,000  Level New York Center
Fri 12:05:17 PM 41.3686 -75.6142 211° Southwest 332 382 12,000  Level New York Center
Fri 12:06:18 PM 41.2997 -75.6672 210° Southwest 326 375 12,000  Level New York Center
Fri 12:07:19 PM 41.2156 -75.6889 191° South 313 360 12,000  Level New York Center
Fri 12:08:17 PM 41.1156 -75.6869 179° South 328 377 12,000  Level New York Center
Fri 12:09:17 PM 41.0261 -75.6861 180° South 328 377 12,000 -200 Level New York Center
Fri 12:10:17 PM 40.9303 -75.6819 178° South 334 384 11,600 -645 Descending New York Center
Fri 12:11:18 PM 40.8406 -75.6397 160° South 339 390 10,700 -787 Descending New York Center
Fri 12:12:19 PM 40.7506 -75.5922 158° South 350 403 10,000 -353 Descending New York Center
Fri 12:13:17 PM 40.6631 -75.5450 158° South 350 403 10,000  Level New York Center
Fri 12:14:17 PM 40.5814 -75.5011 158° South 350 403 10,000  Level New York Center
Fri 12:15:17 PM 40.4936 -75.4542 158° South 345 397 10,000 -500 Level New York Center
Fri 12:16:17 PM 40.4058 -75.4072 158° South 321 369 9,000 -496 Descending New York Center
Fri 12:17:18 PM 40.3386 -75.3672 156° South 308 354 9,000  Level New York Center
Fri 12:18:19 PM 40.2653 -75.3244 156° South 303 349 9,000  Level New York Center
Fri 12:19:17 PM 40.1775 -75.2778 158° South 311 358 9,000  Level New York Center
Fri 12:20:18 PM 40.1100 -75.2408 157° South 289 333 9,000 -321 Level New York Center
Fri 12:21:09 PM 40.0500 -75.2000 152° Southeast 251 289 8,400 -872 Descending Philadelphia TRACON
Fri 12:22:15 PM 39.9833 -75.1667 159° South 232 267 7,300 -1,048 Descending Philadelphia TRACON
Fri 12:23:15 PM 39.9833 -75.1000 90° East 201 231 6,200 -650 Descending Philadelphia TRACON
Fri 12:24:15 PM 40.0000 -75.0167 75° East 200 230 6,000 -100 Descending Philadelphia TRACON
Fri 12:25:15 PM 40.0167 -74.9500 72° East 202 232 6,000 -450 Level Philadelphia TRACON
Fri 12:26:15 PM 39.9833 -74.9167 143° Southeast 193 222 5,100 -850 Descending Philadelphia TRACON
Fri 12:27:15 PM 39.9333 -74.9333 194° South 170 196 4,300 -750 Descending Philadelphia TRACON
Fri 12:28:15 PM 39.9167 -75.0000 252° West 173 199 3,600 -800 Descending Philadelphia TRACON
Fri 12:29:15 PM 39.9167 -75.0500 270° West 170 196 2,700 -900 Descending Philadelphia TRACON

Login

Don't have an account? Register now (free) for customized features, flight alerts, and more!